Catàleg de serveis del Meteocat
Dia Meteoròlogic Mundial

Dades de l'estació automàtica la Tosa d'Alp 2500

?
?
Resum diari 20:30 TU
Dades diàries de l'estació meteorològica
Temperatura mitjana 1.5 °C
Temperatura màxima 4.7 °C 14:55 TU
Temperatura mínima -1.2 °C 2:00 TU
Humitat relativa mitjana 44%
Ratxa màxima del vent (10 m) 40.3 km/h - 125º 17:41 TU
Irradiació solar global 22.7 MJ/m2

El tram horari està expressat en Temps Universal (TU). Cal sumar una hora en horari d'hivern i dues en horari d'estiu per passar a l'hora oficial.

la Tosa d'Alp 2500

Metadades estació meteorol´gica
Municipi Alp
Comarca Cerdanya
Altitud 2478 m
Data alta 04.09.2014
Estat actual Operativa
Dades de període
Període
TU
TM
°C
TX
°C
TN
°C
HRM
%
VVM (10 m)
km/h
DVM (10 m)
graus
VVX (10 m)
km/h
RS
W/m2
00:00 - 00:30 -0.4 -0.2 -0.7 35 13.0 30 19.4 0
00:30 - 01:00 -0.4 -0.3 -0.5 40 9.7 5 14.8 0
01:00 - 01:30 -0.4 -0.3 -0.5 40 6.1 351 11.9 0
01:30 - 02:00 -0.7 -0.5 -1.2 38 1.8 21 6.5 0
02:00 - 02:30 -0.9 -0.4 -1.2 36 1.1 52 5.4 0
02:30 - 03:00 -0.3 0.0 -0.8 36 1.8 104 6.1 0
03:00 - 03:30 -0.9 -0.6 -1.1 37 1.1 352 5.8 0
03:30 - 04:00 -0.7 0.0 -1.0 37 1.8 293 4.7 0
04:00 - 04:30 -0.5 -0.1 -0.7 35 1.4 324 3.2 0
04:30 - 05:00 -0.1 0.5 -0.7 29 3.2 180 6.8 0
05:00 - 05:30 0.3 0.5 0.1 29 6.8 214 9.0 0
05:30 - 06:00 0.1 0.2 0.1 33 6.5 266 9.0 3
06:00 - 06:30 0.3 0.4 0.1 32 5.4 291 7.2 36
06:30 - 07:00 0.1 0.3 0.1 31 6.5 320 7.9 67
07:00 - 07:30 0.4 0.6 0.2 27 7.2 330 9.4 206
07:30 - 08:00 0.8 1.2 0.5 29 3.6 353 9.7 310
08:00 - 08:30 1.8 2.2 1.3 34 1.4 52 5.0 448
08:30 - 09:00 2.3 3.2 1.8 35 1.8 76 5.8 543
09:00 - 09:30 2.6 2.9 2.3 33 3.2 103 7.2 628
09:30 - 10:00 2.4 2.8 2.2 28 6.1 86 14.0 706
10:00 - 10:30 3.0 3.1 2.8 24 5.8 88 14.4 771
10:30 - 11:00 3.4 4.0 3.1 32 6.1 110 18.4 823
11:00 - 11:30 3.2 3.4 3.0 34 9.0 122 18.7 862
11:30 - 12:00 3.6 4.0 3.3 35 9.4 134 19.8 882
12:00 - 12:30 3.8 4.4 3.4 38 9.7 131 22.3 883
12:30 - 13:00 3.9 4.4 3.5 43 9.4 138 24.1 846
13:00 - 13:30 4.1 4.5 3.7 44 9.0 146 24.5 842
13:30 - 14:00 4.1 4.4 3.7 45 13.3 162 25.2 826
14:00 - 14:30 4.1 4.4 3.8 45 13.7 138 26.6 780
14:30 - 15:00 4.3 4.7 3.8 44 13.0 160 24.8 746
15:00 - 15:30 3.7 4.0 3.6 46 16.2 173 26.6 519
15:30 - 16:00 3.8 4.3 3.5 46 16.9 159 28.4 474
16:00 - 16:30 3.5 3.8 3.2 48 16.9 162 28.1 223
16:30 - 17:00 3.2 3.3 3.1 49 15.1 170 27.4 140
17:00 - 17:30 2.8 3.1 2.0 52 15.5 183 33.1 99
17:30 - 18:00 1.5 2.0 1.1 76 27.0 137 40.3 16
18:00 - 18:30 0.8 1.1 0.6 78 25.2 158 38.5 1
18:30 - 19:00 0.5 0.6 0.3 80 17.6 168 24.8 0
19:00 - 19:30 0.2 0.3 0.1 83 13.7 172 23.8 0
19:30 - 20:00 0.0 0.2 -0.2 81 5.0 224 8.3 0
20:00 - 20:30 -0.1 0.1 -0.3 83 3.6 308 8.6 0
20:30 - 21:00 -0.6 -0.1 -1.0 85 6.8 343 13.0 0

Les dades en taronja només han passat un control de qualitat automàtic. Resta pendent la seva validació definitiva.